sensor_id;sensor_type;location;lat;lon;timestamp;temperature;humidity
60309;DHT22;50313;52.894;6.492;2023-04-24T00:00:13;10.10;99.90
60309;DHT22;50313;52.894;6.492;2023-04-24T00:02:40;10.10;99.90
60309;DHT22;50313;52.894;6.492;2023-04-24T00:05:09;10.00;99.90
60309;DHT22;50313;52.894;6.492;2023-04-24T00:07:35;10.10;99.90
60309;DHT22;50313;52.894;6.492;2023-04-24T00:10:01;10.00;99.90
60309;DHT22;50313;52.894;6.492;2023-04-24T00:12:27;10.00;99.90
60309;DHT22;50313;52.894;6.492;2023-04-24T00:14:53;10.00;99.90
60309;DHT22;50313;52.894;6.492;2023-04-24T00:17:22;10.00;99.90
60309;DHT22;50313;52.894;6.492;2023-04-24T00:20:11;10.00;99.90
60309;DHT22;50313;52.894;6.492;2023-04-24T00:22:37;10.00;99.90
60309;DHT22;50313;52.894;6.492;2023-04-24T00:25:03;10.00;99.90
60309;DHT22;50313;52.894;6.492;2023-04-24T00:27:29;10.00;99.90
60309;DHT22;50313;52.894;6.492;2023-04-24T00:29:55;10.00;99.90
60309;DHT22;50313;52.894;6.492;2023-04-24T00:32:21;10.00;99.90
60309;DHT22;50313;52.894;6.492;2023-04-24T00:34:46;10.00;99.90
60309;DHT22;50313;52.894;6.492;2023-04-24T00:37:12;9.90;99.90
60309;DHT22;50313;52.894;6.492;2023-04-24T00:39:38;9.90;99.90
60309;DHT22;50313;52.894;6.492;2023-04-24T00:42:03;9.90;99.90
60309;DHT22;50313;52.894;6.492;2023-04-24T00:44:33;9.90;99.90
60309;DHT22;50313;52.894;6.492;2023-04-24T00:46:59;9.90;99.90
60309;DHT22;50313;52.894;6.492;2023-04-24T00:49:25;9.90;99.90
60309;DHT22;50313;52.894;6.492;2023-04-24T00:51:51;9.90;99.90
60309;DHT22;50313;52.894;6.492;2023-04-24T00:54:17;9.90;99.90
60309;DHT22;50313;52.894;6.492;2023-04-24T00:56:44;9.90;99.90
60309;DHT22;50313;52.894;6.492;2023-04-24T00:59:12;9.80;99.90
60309;DHT22;50313;52.894;6.492;2023-04-24T01:01:39;9.80;99.90
60309;DHT22;50313;52.894;6.492;2023-04-24T01:04:07;9.80;99.90
60309;DHT22;50313;52.894;6.492;2023-04-24T01:06:40;9.80;99.90
60309;DHT22;50313;52.894;6.492;2023-04-24T01:09:06;9.80;99.90
60309;DHT22;50313;52.894;6.492;2023-04-24T01:11:36;9.80;99.90
60309;DHT22;50313;52.894;6.492;2023-04-24T01:14:02;9.80;99.90
60309;DHT22;50313;52.894;6.492;2023-04-24T01:16:28;9.80;99.90
60309;DHT22;50313;52.894;6.492;2023-04-24T01:18:53;9.80;99.90
60309;DHT22;50313;52.894;6.492;2023-04-24T01:21:20;9.80;99.90
60309;DHT22;50313;52.894;6.492;2023-04-24T01:23:47;9.80;99.90
60309;DHT22;50313;52.894;6.492;2023-04-24T01:26:14;9.80;99.90
60309;DHT22;50313;52.894;6.492;2023-04-24T01:28:40;9.80;99.90
60309;DHT22;50313;52.894;6.492;2023-04-24T01:31:06;9.80;99.90
60309;DHT22;50313;52.894;6.492;2023-04-24T01:33:32;9.80;99.90
60309;DHT22;50313;52.894;6.492;2023-04-24T01:35:58;9.90;99.90
60309;DHT22;50313;52.894;6.492;2023-04-24T01:38:24;9.90;99.90
60309;DHT22;50313;52.894;6.492;2023-04-24T01:40:51;9.90;99.90
60309;DHT22;50313;52.894;6.492;2023-04-24T01:43:17;9.90;99.90
60309;DHT22;50313;52.894;6.492;2023-04-24T01:45:43;9.90;99.90
60309;DHT22;50313;52.894;6.492;2023-04-24T01:48:09;9.90;99.90
60309;DHT22;50313;52.894;6.492;2023-04-24T01:50:37;9.90;99.90
60309;DHT22;50313;52.894;6.492;2023-04-24T01:53:02;9.90;99.90
60309;DHT22;50313;52.894;6.492;2023-04-24T01:55:29;9.90;99.90
60309;DHT22;50313;52.894;6.492;2023-04-24T01:57:55;9.90;99.90
60309;DHT22;50313;52.894;6.492;2023-04-24T02:00:22;9.90;99.90
60309;DHT22;50313;52.894;6.492;2023-04-24T02:02:47;9.90;99.90
60309;DHT22;50313;52.894;6.492;2023-04-24T02:05:13;9.90;99.90
60309;DHT22;50313;52.894;6.492;2023-04-24T02:07:41;9.90;99.90
60309;DHT22;50313;52.894;6.492;2023-04-24T02:10:07;9.80;99.90
60309;DHT22;50313;52.894;6.492;2023-04-24T02:12:33;9.80;99.90
60309;DHT22;50313;52.894;6.492;2023-04-24T02:14:59;9.80;99.90
60309;DHT22;50313;52.894;6.492;2023-04-24T02:17:25;9.80;99.90
60309;DHT22;50313;52.894;6.492;2023-04-24T02:19:51;9.80;99.90
60309;DHT22;50313;52.894;6.492;2023-04-24T02:22:17;9.80;99.90
60309;DHT22;50313;52.894;6.492;2023-04-24T02:24:42;9.70;99.90
60309;DHT22;50313;52.894;6.492;2023-04-24T02:27:08;9.70;99.90
60309;DHT22;50313;52.894;6.492;2023-04-24T02:29:34;9.70;99.90
60309;DHT22;50313;52.894;6.492;2023-04-24T02:31:59;9.70;99.90
60309;DHT22;50313;52.894;6.492;2023-04-24T02:34:25;9.70;99.90
60309;DHT22;50313;52.894;6.492;2023-04-24T02:36:51;9.70;99.90
60309;DHT22;50313;52.894;6.492;2023-04-24T02:39:19;9.70;99.90
60309;DHT22;50313;52.894;6.492;2023-04-24T02:41:45;9.70;99.90
60309;DHT22;50313;52.894;6.492;2023-04-24T02:44:10;9.60;99.90
60309;DHT22;50313;52.894;6.492;2023-04-24T02:46:36;9.70;99.90
60309;DHT22;50313;52.894;6.492;2023-04-24T02:49:02;9.70;99.90
60309;DHT22;50313;52.894;6.492;2023-04-24T02:51:28;9.60;99.90
60309;DHT22;50313;52.894;6.492;2023-04-24T02:53:57;9.60;99.90
60309;DHT22;50313;52.894;6.492;2023-04-24T02:56:22;9.60;99.90
60309;DHT22;50313;52.894;6.492;2023-04-24T02:58:48;9.60;99.90
60309;DHT22;50313;52.894;6.492;2023-04-24T03:01:14;9.60;99.90
60309;DHT22;50313;52.894;6.492;2023-04-24T03:03:40;9.60;99.90
60309;DHT22;50313;52.894;6.492;2023-04-24T03:06:06;9.60;99.90
60309;DHT22;50313;52.894;6.492;2023-04-24T03:08:33;9.60;99.90
60309;DHT22;50313;52.894;6.492;2023-04-24T03:10:59;9.60;99.90
60309;DHT22;50313;52.894;6.492;2023-04-24T03:13:25;9.50;99.90
60309;DHT22;50313;52.894;6.492;2023-04-24T03:15:51;9.60;99.90
60309;DHT22;50313;52.894;6.492;2023-04-24T03:18:17;9.50;99.90
60309;DHT22;50313;52.894;6.492;2023-04-24T03:20:45;9.50;99.90
60309;DHT22;50313;52.894;6.492;2023-04-24T03:23:11;9.50;99.90
60309;DHT22;50313;52.894;6.492;2023-04-24T03:25:39;9.50;99.90
60309;DHT22;50313;52.894;6.492;2023-04-24T03:28:06;9.50;99.90
60309;DHT22;50313;52.894;6.492;2023-04-24T03:30:31;9.50;99.90
60309;DHT22;50313;52.894;6.492;2023-04-24T03:32:57;9.40;99.90
60309;DHT22;50313;52.894;6.492;2023-04-24T03:35:23;9.50;99.90
60309;DHT22;50313;52.894;6.492;2023-04-24T03:37:48;9.40;99.90
60309;DHT22;50313;52.894;6.492;2023-04-24T03:40:14;9.40;99.90
60309;DHT22;50313;52.894;6.492;2023-04-24T03:42:40;9.40;99.90
60309;DHT22;50313;52.894;6.492;2023-04-24T03:45:06;9.40;99.90
60309;DHT22;50313;52.894;6.492;2023-04-24T03:47:32;9.40;99.90
60309;DHT22;50313;52.894;6.492;2023-04-24T03:49:58;9.40;99.90
60309;DHT22;50313;52.894;6.492;2023-04-24T03:52:24;9.50;99.90
60309;DHT22;50313;52.894;6.492;2023-04-24T03:54:49;9.40;99.90
60309;DHT22;50313;52.894;6.492;2023-04-24T03:57:15;9.40;99.90
60309;DHT22;50313;52.894;6.492;2023-04-24T03:59:41;9.40;99.90
60309;DHT22;50313;52.894;6.492;2023-04-24T04:02:06;9.40;99.90
60309;DHT22;50313;52.894;6.492;2023-04-24T04:04:32;9.40;99.90
60309;DHT22;50313;52.894;6.492;2023-04-24T04:06:58;9.40;99.90
60309;DHT22;50313;52.894;6.492;2023-04-24T04:09:32;9.40;99.90
60309;DHT22;50313;52.894;6.492;2023-04-24T04:11:58;9.40;99.90
60309;DHT22;50313;52.894;6.492;2023-04-24T04:14:24;9.40;99.90
60309;DHT22;50313;52.894;6.492;2023-04-24T04:16:50;9.40;99.90
60309;DHT22;50313;52.894;6.492;2023-04-24T04:19:16;9.40;99.90
60309;DHT22;50313;52.894;6.492;2023-04-24T04:21:42;9.40;99.90
60309;DHT22;50313;52.894;6.492;2023-04-24T04:24:07;9.40;99.90
60309;DHT22;50313;52.894;6.492;2023-04-24T04:26:35;9.50;99.90
60309;DHT22;50313;52.894;6.492;2023-04-24T04:29:03;9.40;99.90
60309;DHT22;50313;52.894;6.492;2023-04-24T04:31:29;9.40;99.90
60309;DHT22;50313;52.894;6.492;2023-04-24T04:33:55;9.40;99.90
60309;DHT22;50313;52.894;6.492;2023-04-24T04:36:21;9.30;99.90
60309;DHT22;50313;52.894;6.492;2023-04-24T04:38:47;9.30;99.90
60309;DHT22;50313;52.894;6.492;2023-04-24T04:41:12;9.30;99.90
60309;DHT22;50313;52.894;6.492;2023-04-24T04:43:38;9.30;99.90
60309;DHT22;50313;52.894;6.492;2023-04-24T04:46:05;9.20;99.90
60309;DHT22;50313;52.894;6.492;2023-04-24T04:48:31;9.30;99.90
60309;DHT22;50313;52.894;6.492;2023-04-24T04:50:57;9.20;99.90
60309;DHT22;50313;52.894;6.492;2023-04-24T04:53:27;9.20;99.90
60309;DHT22;50313;52.894;6.492;2023-04-24T04:55:56;9.20;99.90
60309;DHT22;50313;52.894;6.492;2023-04-24T04:58:21;9.20;99.90
60309;DHT22;50313;52.894;6.492;2023-04-24T05:00:50;9.30;99.90
60309;DHT22;50313;52.894;6.492;2023-04-24T05:03:19;9.20;99.90
60309;DHT22;50313;52.894;6.492;2023-04-24T05:05:46;9.20;99.90
60309;DHT22;50313;52.894;6.492;2023-04-24T05:08:12;9.20;99.90
60309;DHT22;50313;52.894;6.492;2023-04-24T05:10:41;9.20;99.90
60309;DHT22;50313;52.894;6.492;2023-04-24T05:13:07;9.20;99.90
60309;DHT22;50313;52.894;6.492;2023-04-24T05:15:33;9.10;99.90
60309;DHT22;50313;52.894;6.492;2023-04-24T05:17:59;9.20;99.90
60309;DHT22;50313;52.894;6.492;2023-04-24T05:20:24;9.20;99.90
60309;DHT22;50313;52.894;6.492;2023-04-24T05:22:54;9.20;99.90
60309;DHT22;50313;52.894;6.492;2023-04-24T05:25:20;9.10;99.90
60309;DHT22;50313;52.894;6.492;2023-04-24T05:27:45;9.10;99.90
60309;DHT22;50313;52.894;6.492;2023-04-24T05:30:12;9.30;99.90
60309;DHT22;50313;52.894;6.492;2023-04-24T05:32:38;9.20;99.90
60309;DHT22;50313;52.894;6.492;2023-04-24T05:35:04;9.20;99.90
60309;DHT22;50313;52.894;6.492;2023-04-24T05:37:29;9.20;99.90
60309;DHT22;50313;52.894;6.492;2023-04-24T05:39:55;9.30;99.90
60309;DHT22;50313;52.894;6.492;2023-04-24T05:42:21;9.30;99.90
60309;DHT22;50313;52.894;6.492;2023-04-24T05:44:47;9.30;99.90
60309;DHT22;50313;52.894;6.492;2023-04-24T05:47:12;9.30;99.90
60309;DHT22;50313;52.894;6.492;2023-04-24T05:49:41;9.30;99.90
60309;DHT22;50313;52.894;6.492;2023-04-24T05:52:07;9.40;99.90
60309;DHT22;50313;52.894;6.492;2023-04-24T05:54:34;9.40;99.90
60309;DHT22;50313;52.894;6.492;2023-04-24T05:57:00;9.50;99.90
60309;DHT22;50313;52.894;6.492;2023-04-24T05:59:29;9.50;99.90
60309;DHT22;50313;52.894;6.492;2023-04-24T06:01:56;9.50;99.90
60309;DHT22;50313;52.894;6.492;2023-04-24T06:04:21;9.50;99.90
60309;DHT22;50313;52.894;6.492;2023-04-24T06:06:50;9.50;99.90
60309;DHT22;50313;52.894;6.492;2023-04-24T06:09:22;9.60;99.90
60309;DHT22;50313;52.894;6.492;2023-04-24T06:11:48;9.60;99.90
60309;DHT22;50313;52.894;6.492;2023-04-24T06:14:15;9.70;99.90
60309;DHT22;50313;52.894;6.492;2023-04-24T06:16:42;9.80;99.90
60309;DHT22;50313;52.894;6.492;2023-04-24T06:19:08;9.80;99.90
60309;DHT22;50313;52.894;6.492;2023-04-24T06:21:33;9.80;99.90
60309;DHT22;50313;52.894;6.492;2023-04-24T06:23:59;9.80;99.90
60309;DHT22;50313;52.894;6.492;2023-04-24T06:26:25;9.80;99.90
60309;DHT22;50313;52.894;6.492;2023-04-24T06:28:52;9.80;99.90
60309;DHT22;50313;52.894;6.492;2023-04-24T06:31:21;9.80;99.90
60309;DHT22;50313;52.894;6.492;2023-04-24T06:33:52;9.70;99.90
60309;DHT22;50313;52.894;6.492;2023-04-24T06:36:18;9.70;99.90
60309;DHT22;50313;52.894;6.492;2023-04-24T06:38:44;9.70;99.90
60309;DHT22;50313;52.894;6.492;2023-04-24T06:41:10;9.70;99.90
60309;DHT22;50313;52.894;6.492;2023-04-24T06:43:36;9.70;99.90
60309;DHT22;50313;52.894;6.492;2023-04-24T06:46:02;9.70;99.90
60309;DHT22;50313;52.894;6.492;2023-04-24T06:48:32;9.70;99.90
60309;DHT22;50313;52.894;6.492;2023-04-24T06:50:57;9.60;99.90
60309;DHT22;50313;52.894;6.492;2023-04-24T06:53:23;9.70;99.90
60309;DHT22;50313;52.894;6.492;2023-04-24T06:55:49;9.70;99.90
60309;DHT22;50313;52.894;6.492;2023-04-24T06:58:17;9.70;99.90
60309;DHT22;50313;52.894;6.492;2023-04-24T07:00:51;9.70;99.90
60309;DHT22;50313;52.894;6.492;2023-04-24T07:03:19;9.70;99.90
60309;DHT22;50313;52.894;6.492;2023-04-24T07:05:45;9.70;99.90
60309;DHT22;50313;52.894;6.492;2023-04-24T07:08:11;9.60;99.90
60309;DHT22;50313;52.894;6.492;2023-04-24T07:10:44;9.60;99.90
60309;DHT22;50313;52.894;6.492;2023-04-24T07:13:10;9.60;99.90
60309;DHT22;50313;52.894;6.492;2023-04-24T07:15:40;9.60;99.90
60309;DHT22;50313;52.894;6.492;2023-04-24T07:18:18;9.50;99.90
60309;DHT22;50313;52.894;6.492;2023-04-24T07:20:44;9.60;99.90
60309;DHT22;50313;52.894;6.492;2023-04-24T07:23:10;9.50;99.90
60309;DHT22;50313;52.894;6.492;2023-04-24T07:25:36;9.50;99.90
60309;DHT22;50313;52.894;6.492;2023-04-24T07:28:18;9.60;99.90
60309;DHT22;50313;52.894;6.492;2023-04-24T07:31:00;9.50;99.90
60309;DHT22;50313;52.894;6.492;2023-04-24T07:33:36;9.50;99.90
60309;DHT22;50313;52.894;6.492;2023-04-24T07:36:02;9.50;99.90
60309;DHT22;50313;52.894;6.492;2023-04-24T07:38:35;9.50;99.90
60309;DHT22;50313;52.894;6.492;2023-04-24T07:41:03;9.40;99.90
60309;DHT22;50313;52.894;6.492;2023-04-24T07:43:35;9.40;99.90
60309;DHT22;50313;52.894;6.492;2023-04-24T07:46:03;9.40;99.90
60309;DHT22;50313;52.894;6.492;2023-04-24T07:48:32;9.30;99.90
60309;DHT22;50313;52.894;6.492;2023-04-24T07:50:58;9.40;99.90
60309;DHT22;50313;52.894;6.492;2023-04-24T07:53:24;9.40;99.90
60309;DHT22;50313;52.894;6.492;2023-04-24T07:55:59;9.40;99.90
60309;DHT22;50313;52.894;6.492;2023-04-24T07:58:31;9.30;99.90
60309;DHT22;50313;52.894;6.492;2023-04-24T08:00:59;9.40;99.90
60309;DHT22;50313;52.894;6.492;2023-04-24T08:03:28;9.40;99.90
60309;DHT22;50313;52.894;6.492;2023-04-24T08:05:53;9.40;99.90
60309;DHT22;50313;52.894;6.492;2023-04-24T08:08:22;9.30;99.90
60309;DHT22;50313;52.894;6.492;2023-04-24T08:10:50;9.30;99.90
60309;DHT22;50313;52.894;6.492;2023-04-24T08:13:19;9.30;99.90
60309;DHT22;50313;52.894;6.492;2023-04-24T08:15:48;9.30;99.90
60309;DHT22;50313;52.894;6.492;2023-04-24T08:18:20;9.30;99.90
60309;DHT22;50313;52.894;6.492;2023-04-24T08:20:46;9.20;99.90
60309;DHT22;50313;52.894;6.492;2023-04-24T08:23:17;9.20;99.90
60309;DHT22;50313;52.894;6.492;2023-04-24T08:25:43;9.10;99.90
60309;DHT22;50313;52.894;6.492;2023-04-24T08:28:13;9.10;99.90
60309;DHT22;50313;52.894;6.492;2023-04-24T08:30:45;9.10;99.90
60309;DHT22;50313;52.894;6.492;2023-04-24T08:33:22;9.00;99.90
60309;DHT22;50313;52.894;6.492;2023-04-24T08:35:48;9.00;99.90
60309;DHT22;50313;52.894;6.492;2023-04-24T08:38:15;8.90;99.90
60309;DHT22;50313;52.894;6.492;2023-04-24T08:40:53;8.80;99.90
60309;DHT22;50313;52.894;6.492;2023-04-24T08:43:22;8.80;99.90
60309;DHT22;50313;52.894;6.492;2023-04-24T08:45:47;8.80;99.90
60309;DHT22;50313;52.894;6.492;2023-04-24T08:48:19;8.80;99.90
60309;DHT22;50313;52.894;6.492;2023-04-24T08:50:50;8.70;99.90
60309;DHT22;50313;52.894;6.492;2023-04-24T08:53:18;8.70;99.90
60309;DHT22;50313;52.894;6.492;2023-04-24T08:55:55;8.70;99.90
60309;DHT22;50313;52.894;6.492;2023-04-24T08:58:29;8.60;99.90
60309;DHT22;50313;52.894;6.492;2023-04-24T09:00:57;8.60;99.90
60309;DHT22;50313;52.894;6.492;2023-04-24T09:03:34;8.50;99.90
60309;DHT22;50313;52.894;6.492;2023-04-24T09:06:04;8.50;99.90
60309;DHT22;50313;52.894;6.492;2023-04-24T09:08:32;8.40;99.90
60309;DHT22;50313;52.894;6.492;2023-04-24T09:10:58;8.40;99.90
60309;DHT22;50313;52.894;6.492;2023-04-24T09:13:32;8.40;99.90
60309;DHT22;50313;52.894;6.492;2023-04-24T09:15:58;8.40;99.90
60309;DHT22;50313;52.894;6.492;2023-04-24T09:18:31;8.50;99.90
60309;DHT22;50313;52.894;6.492;2023-04-24T09:21:07;8.50;99.90
60309;DHT22;50313;52.894;6.492;2023-04-24T09:23:41;8.50;99.90
60309;DHT22;50313;52.894;6.492;2023-04-24T09:26:10;8.50;99.90
60309;DHT22;50313;52.894;6.492;2023-04-24T09:28:38;8.60;99.90
60309;DHT22;50313;52.894;6.492;2023-04-24T09:37:48;8.60;99.90
60309;DHT22;50313;52.894;6.492;2023-04-24T09:40:21;8.60;99.90
60309;DHT22;50313;52.894;6.492;2023-04-24T09:42:59;8.50;99.90
60309;DHT22;50313;52.894;6.492;2023-04-24T09:45:37;8.50;99.90
60309;DHT22;50313;52.894;6.492;2023-04-24T09:48:21;8.50;99.90
60309;DHT22;50313;52.894;6.492;2023-04-24T09:51:05;8.50;99.90
60309;DHT22;50313;52.894;6.492;2023-04-24T09:53:50;8.60;99.90
60309;DHT22;50313;52.894;6.492;2023-04-24T09:56:20;8.60;99.90
60309;DHT22;50313;52.894;6.492;2023-04-24T09:58:49;8.70;99.90
60309;DHT22;50313;52.894;6.492;2023-04-24T10:01:33;8.70;99.90
60309;DHT22;50313;52.894;6.492;2023-04-24T10:04:01;8.80;99.90
60309;DHT22;50313;52.894;6.492;2023-04-24T10:06:37;8.90;99.90
60309;DHT22;50313;52.894;6.492;2023-04-24T10:09:03;8.90;99.90
60309;DHT22;50313;52.894;6.492;2023-04-24T10:11:50;9.10;99.90
60309;DHT22;50313;52.894;6.492;2023-04-24T10:14:24;9.10;99.90
60309;DHT22;50313;52.894;6.492;2023-04-24T10:17:02;9.20;99.90
60309;DHT22;50313;52.894;6.492;2023-04-24T10:19:29;9.20;99.90
60309;DHT22;50313;52.894;6.492;2023-04-24T10:21:56;9.20;99.90
60309;DHT22;50313;52.894;6.492;2023-04-24T10:24:28;9.00;99.90
60309;DHT22;50313;52.894;6.492;2023-04-24T10:26:58;9.00;99.90
60309;DHT22;50313;52.894;6.492;2023-04-24T10:29:35;9.00;99.90
60309;DHT22;50313;52.894;6.492;2023-04-24T10:32:09;9.00;99.90
60309;DHT22;50313;52.894;6.492;2023-04-24T10:34:37;9.00;99.90
60309;DHT22;50313;52.894;6.492;2023-04-24T10:37:03;8.80;99.90
60309;DHT22;50313;52.894;6.492;2023-04-24T10:39:32;8.90;99.90
60309;DHT22;50313;52.894;6.492;2023-04-24T10:42:03;8.80;99.90
60309;DHT22;50313;52.894;6.492;2023-04-24T10:44:47;8.90;99.90
60309;DHT22;50313;52.894;6.492;2023-04-24T10:48:09;8.80;99.90
60309;DHT22;50313;52.894;6.492;2023-04-24T10:50:52;8.90;99.90
60309;DHT22;50313;52.894;6.492;2023-04-24T10:56:22;9.00;99.90
60309;DHT22;50313;52.894;6.492;2023-04-24T10:58:52;9.10;99.90
60309;DHT22;50313;52.894;6.492;2023-04-24T11:01:33;9.20;99.90
60309;DHT22;50313;52.894;6.492;2023-04-24T11:04:03;9.40;99.90
60309;DHT22;50313;52.894;6.492;2023-04-24T11:06:38;9.60;99.90
60309;DHT22;50313;52.894;6.492;2023-04-24T11:09:51;9.40;99.90
60309;DHT22;50313;52.894;6.492;2023-04-24T11:12:20;9.40;99.90
60309;DHT22;50313;52.894;6.492;2023-04-24T11:17:46;9.20;99.90
60309;DHT22;50313;52.894;6.492;2023-04-24T11:20:22;9.20;99.90
60309;DHT22;50313;52.894;6.492;2023-04-24T11:22:53;9.10;99.90
60309;DHT22;50313;52.894;6.492;2023-04-24T11:25:52;9.10;99.90
60309;DHT22;50313;52.894;6.492;2023-04-24T11:28:19;9.00;99.90
60309;DHT22;50313;52.894;6.492;2023-04-24T11:30:56;9.10;99.90
60309;DHT22;50313;52.894;6.492;2023-04-24T11:33:45;9.10;99.90
60309;DHT22;50313;52.894;6.492;2023-04-24T11:36:13;9.30;99.90
60309;DHT22;50313;52.894;6.492;2023-04-24T11:39:04;9.40;99.90
60309;DHT22;50313;52.894;6.492;2023-04-24T11:41:44;9.70;99.90
60309;DHT22;50313;52.894;6.492;2023-04-24T11:44:38;9.70;99.90
60309;DHT22;50313;52.894;6.492;2023-04-24T11:47:20;9.70;99.90
60309;DHT22;50313;52.894;6.492;2023-04-24T11:49:51;9.60;99.90
60309;DHT22;50313;52.894;6.492;2023-04-24T11:52:21;9.50;99.90
60309;DHT22;50313;52.894;6.492;2023-04-24T11:54:58;9.40;99.90
60309;DHT22;50313;52.894;6.492;2023-04-24T11:57:27;9.40;99.90
60309;DHT22;50313;52.894;6.492;2023-04-24T12:00:02;9.30;99.90
60309;DHT22;50313;52.894;6.492;2023-04-24T12:02:31;9.20;99.90
60309;DHT22;50313;52.894;6.492;2023-04-24T12:05:06;9.20;99.90
60309;DHT22;50313;52.894;6.492;2023-04-24T12:07:40;9.30;99.90
60309;DHT22;50313;52.894;6.492;2023-04-24T12:10:08;9.40;99.90
60309;DHT22;50313;52.894;6.492;2023-04-24T12:12:36;9.50;99.90
60309;DHT22;50313;52.894;6.492;2023-04-24T12:15:07;9.50;99.90
60309;DHT22;50313;52.894;6.492;2023-04-24T12:17:34;9.60;99.90
60309;DHT22;50313;52.894;6.492;2023-04-24T12:20:07;9.60;99.90
60309;DHT22;50313;52.894;6.492;2023-04-24T12:22:49;9.70;99.90
60309;DHT22;50313;52.894;6.492;2023-04-24T12:25:19;9.90;99.90
60309;DHT22;50313;52.894;6.492;2023-04-24T12:27:46;10.10;99.90
60309;DHT22;50313;52.894;6.492;2023-04-24T12:30:27;10.20;99.90
60309;DHT22;50313;52.894;6.492;2023-04-24T12:32:58;10.50;99.90
60309;DHT22;50313;52.894;6.492;2023-04-24T12:35:28;10.40;99.90
60309;DHT22;50313;52.894;6.492;2023-04-24T12:38:21;10.60;99.90
60309;DHT22;50313;52.894;6.492;2023-04-24T12:40:47;10.50;99.90
60309;DHT22;50313;52.894;6.492;2023-04-24T12:43:17;10.40;99.90
60309;DHT22;50313;52.894;6.492;2023-04-24T12:45:51;10.40;99.90
60309;DHT22;50313;52.894;6.492;2023-04-24T12:48:17;10.30;99.90
60309;DHT22;50313;52.894;6.492;2023-04-24T12:50:44;10.30;99.90
60309;DHT22;50313;52.894;6.492;2023-04-24T12:53:26;10.30;99.90
60309;DHT22;50313;52.894;6.492;2023-04-24T12:56:02;10.20;99.90
60309;DHT22;50313;52.894;6.492;2023-04-24T12:58:40;10.10;99.90
60309;DHT22;50313;52.894;6.492;2023-04-24T13:01:11;9.90;99.90
60309;DHT22;50313;52.894;6.492;2023-04-24T13:03:40;9.90;99.90
60309;DHT22;50313;52.894;6.492;2023-04-24T13:06:17;9.70;99.90
60309;DHT22;50313;52.894;6.492;2023-04-24T13:09:02;9.60;99.90
60309;DHT22;50313;52.894;6.492;2023-04-24T13:11:53;9.60;99.90
60309;DHT22;50313;52.894;6.492;2023-04-24T13:14:26;9.70;99.90
60309;DHT22;50313;52.894;6.492;2023-04-24T13:17:01;9.80;99.90
60309;DHT22;50313;52.894;6.492;2023-04-24T13:19:38;9.80;99.90
60309;DHT22;50313;52.894;6.492;2023-04-24T13:22:09;9.90;99.90
60309;DHT22;50313;52.894;6.492;2023-04-24T13:24:37;10.00;99.90
60309;DHT22;50313;52.894;6.492;2023-04-24T13:27:08;10.00;99.90
60309;DHT22;50313;52.894;6.492;2023-04-24T13:29:37;9.70;99.90
60309;DHT22;50313;52.894;6.492;2023-04-24T13:32:05;9.70;99.90
60309;DHT22;50313;52.894;6.492;2023-04-24T13:34:31;9.50;99.90
60309;DHT22;50313;52.894;6.492;2023-04-24T13:36:58;9.40;99.90
60309;DHT22;50313;52.894;6.492;2023-04-24T13:39:24;9.40;99.90
60309;DHT22;50313;52.894;6.492;2023-04-24T13:41:51;9.20;99.90
60309;DHT22;50313;52.894;6.492;2023-04-24T13:44:21;9.20;99.90
60309;DHT22;50313;52.894;6.492;2023-04-24T13:46:48;9.10;99.90
60309;DHT22;50313;52.894;6.492;2023-04-24T13:49:18;9.10;99.90
60309;DHT22;50313;52.894;6.492;2023-04-24T13:51:48;9.20;99.90
60309;DHT22;50313;52.894;6.492;2023-04-24T13:54:17;9.20;99.90
60309;DHT22;50313;52.894;6.492;2023-04-24T13:56:49;9.20;99.90
60309;DHT22;50313;52.894;6.492;2023-04-24T13:59:15;9.30;99.90
60309;DHT22;50313;52.894;6.492;2023-04-24T14:01:43;9.30;99.90
60309;DHT22;50313;52.894;6.492;2023-04-24T14:04:11;9.40;99.90
60309;DHT22;50313;52.894;6.492;2023-04-24T14:06:37;9.70;99.90
60309;DHT22;50313;52.894;6.492;2023-04-24T14:09:09;9.60;99.90
60309;DHT22;50313;52.894;6.492;2023-04-24T14:11:35;9.60;99.90
60309;DHT22;50313;52.894;6.492;2023-04-24T14:14:14;9.60;99.90
60309;DHT22;50313;52.894;6.492;2023-04-24T14:16:42;9.60;99.90
60309;DHT22;50313;52.894;6.492;2023-04-24T14:19:11;9.50;99.90
60309;DHT22;50313;52.894;6.492;2023-04-24T14:21:37;9.30;99.90
60309;DHT22;50313;52.894;6.492;2023-04-24T14:24:06;9.40;99.90
60309;DHT22;50313;52.894;6.492;2023-04-24T14:26:32;9.30;99.90
60309;DHT22;50313;52.894;6.492;2023-04-24T14:29:00;9.30;99.90
60309;DHT22;50313;52.894;6.492;2023-04-24T14:31:28;9.40;99.90
60309;DHT22;50313;52.894;6.492;2023-04-24T14:34:05;9.30;99.90
60309;DHT22;50313;52.894;6.492;2023-04-24T14:36:31;9.20;99.90
60309;DHT22;50313;52.894;6.492;2023-04-24T14:39:08;9.00;99.90
60309;DHT22;50313;52.894;6.492;2023-04-24T14:41:37;9.00;99.90
60309;DHT22;50313;52.894;6.492;2023-04-24T14:44:04;9.00;99.90
60309;DHT22;50313;52.894;6.492;2023-04-24T14:46:41;9.10;99.90
60309;DHT22;50313;52.894;6.492;2023-04-24T14:49:10;9.20;99.90
60309;DHT22;50313;52.894;6.492;2023-04-24T14:51:39;9.30;99.90
60309;DHT22;50313;52.894;6.492;2023-04-24T14:54:11;9.30;99.90
60309;DHT22;50313;52.894;6.492;2023-04-24T14:56:42;9.30;99.90
60309;DHT22;50313;52.894;6.492;2023-04-24T14:59:17;9.40;99.90
60309;DHT22;50313;52.894;6.492;2023-04-24T15:01:50;9.30;99.90
60309;DHT22;50313;52.894;6.492;2023-04-24T15:04:28;9.30;99.90
60309;DHT22;50313;52.894;6.492;2023-04-24T15:06:59;9.40;99.90
60309;DHT22;50313;52.894;6.492;2023-04-24T15:09:32;9.50;99.90
60309;DHT22;50313;52.894;6.492;2023-04-24T15:12:01;9.50;99.90
60309;DHT22;50313;52.894;6.492;2023-04-24T15:14:27;9.80;99.90
60309;DHT22;50313;52.894;6.492;2023-04-24T15:17:01;10.00;99.90
60309;DHT22;50313;52.894;6.492;2023-04-24T15:22:18;10.20;99.90
60309;DHT22;50313;52.894;6.492;2023-04-24T15:24:44;10.00;99.90
60309;DHT22;50313;52.894;6.492;2023-04-24T15:27:10;9.90;99.90
60309;DHT22;50313;52.894;6.492;2023-04-24T15:29:45;9.70;99.90
60309;DHT22;50313;52.894;6.492;2023-04-24T15:32:11;9.40;99.90
60309;DHT22;50313;52.894;6.492;2023-04-24T15:34:40;9.20;99.90
60309;DHT22;50313;52.894;6.492;2023-04-24T15:37:10;9.20;99.90
60309;DHT22;50313;52.894;6.492;2023-04-24T15:39:36;9.50;99.90
60309;DHT22;50313;52.894;6.492;2023-04-24T15:42:07;9.90;99.90
60309;DHT22;50313;52.894;6.492;2023-04-24T15:44:33;9.90;99.90
60309;DHT22;50313;52.894;6.492;2023-04-24T15:47:01;9.70;99.90
60309;DHT22;50313;52.894;6.492;2023-04-24T15:49:31;9.50;99.90
60309;DHT22;50313;52.894;6.492;2023-04-24T15:52:00;9.40;99.90
60309;DHT22;50313;52.894;6.492;2023-04-24T15:54:26;9.30;99.90
60309;DHT22;50313;52.894;6.492;2023-04-24T15:56:52;9.20;99.90
60309;DHT22;50313;52.894;6.492;2023-04-24T15:59:18;9.00;99.90
60309;DHT22;50313;52.894;6.492;2023-04-24T16:01:47;9.10;99.90
60309;DHT22;50313;52.894;6.492;2023-04-24T16:04:20;9.10;99.90
60309;DHT22;50313;52.894;6.492;2023-04-24T16:06:45;9.10;99.90
60309;DHT22;50313;52.894;6.492;2023-04-24T16:09:12;9.20;99.90
60309;DHT22;50313;52.894;6.492;2023-04-24T16:11:38;9.10;99.90
60309;DHT22;50313;52.894;6.492;2023-04-24T16:14:04;9.00;99.90